Time;durP1;ratioP1;P1;durP2;ratioP2;P2;SDS_P1;SDS_P2;PMS_P1;PMS_P2;Temp;Humidity;BMP_temperature;BMP_pressure;BME280_temperature;BME280_humidity;BME280_pressure;Samples;Min_cycle;Max_cycle;Signal;HPM_P1;HPM_P2
2022/07/15 00:01:02;;;;;;;3.80;1.90;;;;;;;;;;108632;1263;34413;-38
2022/07/15 00:03:34;;;;;;;4.00;1.60;;;;;;;;;;108645;1263;33887;-38
2022/07/15 00:06:07;;;;;;;3.50;1.50;;;;;;;;;;108671;1258;33750;-38
2022/07/15 00:08:39;;;;;;;4.00;1.70;;;;;;;;;;108662;1256;33530;-38
2022/07/15 00:11:12;;;;;;;3.30;1.60;;;;;;;;;;108704;1256;33438;-38
2022/07/15 00:13:44;;;;;;;4.00;1.60;;;;;;;;;;108638;1256;33908;-39
2022/07/15 00:16:16;;;;;;;2.80;1.40;;;;;;;;;;108688;1257;33713;-38
2022/07/15 00:18:49;;;;;;;3.50;1.40;;;;;;;;;;108638;1256;33864;-38
2022/07/15 00:21:21;;;;;;;3.80;1.50;;;;;;;;;;108660;1263;33894;-38
2022/07/15 00:23:54;;;;;;;4.80;1.40;;;;;;;;;;108567;1257;33917;-39
2022/07/15 00:26:27;;;;;;;3.80;1.50;;;;;;;;;;108668;1257;33570;-38
2022/07/15 00:28:59;;;;;;;4.30;1.60;;;;;;;;;;108664;1256;34306;-38
2022/07/15 00:31:34;;;;;;;3.00;1.30;;;;;;;;;;108667;1263;34185;-39
2022/07/15 00:34:06;;;;;;;4.90;1.60;;;;;;;;;;108643;1263;34254;-38
2022/07/15 00:36:39;;;;;;;4.10;1.70;;;;;;;;;;108666;1257;33895;-38
2022/07/15 00:39:11;;;;;;;2.80;1.30;;;;;;;;;;108629;1257;34103;-38
2022/07/15 00:41:45;;;;;;;2.80;1.40;;;;;;;;;;108620;1257;34064;-38
2022/07/15 00:44:17;;;;;;;3.10;1.30;;;;;;;;;;108657;1263;33965;-38
2022/07/15 00:46:50;;;;;;;3.70;1.30;;;;;;;;;;108651;1256;33746;-38
2022/07/15 00:49:23;;;;;;;3.10;1.40;;;;;;;;;;108649;1255;33849;-38
2022/07/15 00:51:57;;;;;;;4.00;1.30;;;;;;;;;;108615;1263;34224;-38
2022/07/15 00:54:32;;;;;;;4.10;1.40;;;;;;;;;;108651;1256;33298;-38
2022/07/15 00:57:05;;;;;;;3.00;1.40;;;;;;;;;;108623;1256;34379;-39
2022/07/15 00:59:38;;;;;;;3.40;1.40;;;;;;;;;;108664;1256;33361;-38
2022/07/15 01:02:10;;;;;;;3.50;1.40;;;;;;;;;;108670;1256;33849;-38
2022/07/15 01:04:47;;;;;;;4.60;1.50;;;;;;;;;;108661;1257;33332;-38
2022/07/15 01:07:19;;;;;;;3.20;1.40;;;;;;;;;;108612;1256;33900;-38
2022/07/15 01:09:51;;;;;;;3.80;1.10;;;;;;;;;;108664;1256;33863;-39
2022/07/15 01:12:24;;;;;;;3.20;1.30;;;;;;;;;;108642;1256;33844;-38
2022/07/15 01:14:57;;;;;;;3.30;1.30;;;;;;;;;;108673;1257;33757;-38
2022/07/15 01:17:30;;;;;;;4.00;1.30;;;;;;;;;;108625;1257;33826;-38
2022/07/15 01:20:04;;;;;;;3.60;1.30;;;;;;;;;;108636;1256;33875;-38
2022/07/15 01:22:36;;;;;;;3.00;1.20;;;;;;;;;;108615;1257;33699;-39
2022/07/15 01:25:11;;;;;;;2.40;1.20;;;;;;;;;;108642;1256;33478;-38
2022/07/15 01:27:44;;;;;;;3.00;1.20;;;;;;;;;;108677;1256;33640;-38
2022/07/15 01:30:15;;;;;;;;;;;;;;;;;;108688;1257;33933;-38
2022/07/15 01:32:47;;;;;;;2.90;1.20;;;;;;;;;;108632;1256;33968;-38
2022/07/15 01:35:20;;;;;;;3.60;1.40;;;;;;;;;;108611;1263;34151;-38
2022/07/15 01:37:53;;;;;;;3.20;1.30;;;;;;;;;;108632;1256;34259;-38
2022/07/15 01:40:25;;;;;;;3.50;1.20;;;;;;;;;;108624;1263;34327;-39
2022/07/15 01:42:57;;;;;;;3.80;1.20;;;;;;;;;;108692;1263;34344;-39
2022/07/15 01:45:30;;;;;;;4.00;1.20;;;;;;;;;;108652;1257;34221;-38
2022/07/15 01:48:02;;;;;;;2.50;1.10;;;;;;;;;;108653;1257;33915;-38
2022/07/15 01:50:37;;;;;;;4.40;1.50;;;;;;;;;;108670;1263;34078;-38
2022/07/15 01:53:09;;;;;;;2.40;1.20;;;;;;;;;;108652;1263;34250;-38
2022/07/15 01:55:41;;;;;;;2.70;1.10;;;;;;;;;;108648;1261;34309;-39
2022/07/15 01:58:14;;;;;;;3.10;1.30;;;;;;;;;;108631;1256;33367;-38
2022/07/15 02:00:46;;;;;;;3.00;1.20;;;;;;;;;;108631;1256;33859;-38
2022/07/15 02:03:19;;;;;;;2.90;1.20;;;;;;;;;;108648;1263;34129;-38
2022/07/15 02:05:51;;;;;;;2.70;1.10;;;;;;;;;;108628;1257;33618;-38
2022/07/15 02:08:24;;;;;;;3.50;1.20;;;;;;;;;;108648;1256;34089;-38
2022/07/15 02:10:58;;;;;;;3.40;1.20;;;;;;;;;;108643;1263;34237;-39
2022/07/15 02:13:31;;;;;;;3.70;1.10;;;;;;;;;;108635;1263;33748;-38
2022/07/15 02:16:04;;;;;;;3.30;1.10;;;;;;;;;;108647;1257;33839;-38
2022/07/15 02:18:36;;;;;;;4.20;1.30;;;;;;;;;;108650;1256;33495;-38
2022/07/15 02:21:09;;;;;;;2.60;1.20;;;;;;;;;;108654;1263;33784;-39
2022/07/15 02:23:42;;;;;;;2.40;0.90;;;;;;;;;;108701;1263;33682;-39
2022/07/15 02:26:14;;;;;;;3.50;1.40;;;;;;;;;;108613;1256;33746;-38
2022/07/15 02:28:47;;;;;;;3.80;1.10;;;;;;;;;;108650;1257;34138;-38
2022/07/15 02:31:20;;;;;;;2.80;1.20;;;;;;;;;;108670;1263;34430;-38
2022/07/15 02:33:52;;;;;;;4.60;1.30;;;;;;;;;;108633;1263;34372;-38
2022/07/15 02:36:25;;;;;;;3.10;1.00;;;;;;;;;;108663;1255;33871;-38
2022/07/15 02:38:58;;;;;;;3.00;1.20;;;;;;;;;;108624;1256;33711;-38
2022/07/15 02:41:30;;;;;;;2.90;1.40;;;;;;;;;;108657;1263;34334;-38
2022/07/15 02:44:05;;;;;;;3.80;1.20;;;;;;;;;;108633;1256;33925;-38
2022/07/15 02:46:40;;;;;;;3.30;1.40;;;;;;;;;;108614;1257;33800;-38
2022/07/15 02:49:13;;;;;;;2.30;0.90;;;;;;;;;;108656;1257;33840;-38
2022/07/15 02:51:48;;;;;;;3.80;1.30;;;;;;;;;;108607;1263;34206;-38
2022/07/15 02:54:20;;;;;;;3.20;1.40;;;;;;;;;;108640;1257;33778;-38
2022/07/15 02:56:53;;;;;;;2.60;1.10;;;;;;;;;;108632;1257;33605;-38
2022/07/15 02:59:25;;;;;;;3.50;1.30;;;;;;;;;;108642;1257;34044;-38
2022/07/15 03:01:57;;;;;;;2.30;1.00;;;;;;;;;;108636;1257;34020;-38
2022/07/15 03:04:30;;;;;;;2.80;1.30;;;;;;;;;;108616;1263;33414;-38
2022/07/15 03:07:02;;;;;;;3.70;1.50;;;;;;;;;;108623;1256;33920;-38
2022/07/15 03:09:35;;;;;;;2.70;1.10;;;;;;;;;;108680;1256;33820;-38
2022/07/15 03:12:08;;;;;;;3.10;1.50;;;;;;;;;;108665;1257;33648;-39
2022/07/15 03:14:41;;;;;;;2.40;0.90;;;;;;;;;;108653;1256;33730;-39
2022/07/15 03:17:13;;;;;;;3.20;1.50;;;;;;;;;;108642;1257;33707;-38
2022/07/15 03:19:46;;;;;;;3.30;1.20;;;;;;;;;;108657;1257;33817;-39
2022/07/15 03:22:18;;;;;;;2.60;1.20;;;;;;;;;;108648;1256;33412;-38
2022/07/15 03:24:50;;;;;;;2.90;1.30;;;;;;;;;;108655;1256;33332;-38
2022/07/15 03:27:23;;;;;;;2.60;1.20;;;;;;;;;;108617;1255;33873;-40
2022/07/15 03:29:55;;;;;;;2.70;1.10;;;;;;;;;;108658;1257;33833;-38
2022/07/15 03:32:28;;;;;;;4.00;1.60;;;;;;;;;;108614;1263;34096;-38
2022/07/15 03:35:01;;;;;;;3.50;1.30;;;;;;;;;;108643;1256;33849;-39
2022/07/15 03:37:34;;;;;;;3.20;1.20;;;;;;;;;;108653;1256;33374;-38
2022/07/15 03:40:09;;;;;;;3.30;1.30;;;;;;;;;;108627;1256;33801;-38
2022/07/15 03:42:41;;;;;;;3.60;1.30;;;;;;;;;;108659;1263;34242;-38
2022/07/15 03:45:14;;;;;;;3.00;1.10;;;;;;;;;;108618;1257;33762;-38
2022/07/15 03:47:46;;;;;;;3.00;1.10;;;;;;;;;;108627;1257;33319;-38
2022/07/15 03:50:18;;;;;;;3.50;1.30;;;;;;;;;;108652;1257;33959;-38
2022/07/15 03:52:50;;;;;;;3.10;1.20;;;;;;;;;;108698;1263;33897;-40
2022/07/15 03:55:23;;;;;;;4.00;1.20;;;;;;;;;;108685;1257;33868;-38
2022/07/15 03:57:55;;;;;;;3.70;1.30;;;;;;;;;;108649;1257;33836;-38
2022/07/15 04:00:28;;;;;;;2.90;1.20;;;;;;;;;;108653;1257;33486;-38
2022/07/15 04:03:01;;;;;;;3.40;1.50;;;;;;;;;;108621;1256;34149;-39
2022/07/15 04:05:33;;;;;;;2.70;1.20;;;;;;;;;;108665;1256;33951;-38
2022/07/15 04:08:06;;;;;;;2.50;1.20;;;;;;;;;;108649;1256;33969;-39
2022/07/15 04:10:39;;;;;;;3.00;1.10;;;;;;;;;;108628;1256;34022;-39
2022/07/15 04:13:11;;;;;;;3.30;1.30;;;;;;;;;;108624;1256;33376;-38
2022/07/15 04:15:43;;;;;;;3.40;1.30;;;;;;;;;;108651;1263;34050;-38
2022/07/15 04:18:16;;;;;;;4.80;1.50;;;;;;;;;;108651;1255;34274;-38
2022/07/15 04:20:48;;;;;;;3.30;1.50;;;;;;;;;;108684;1263;33809;-38
2022/07/15 04:23:20;;;;;;;3.00;1.20;;;;;;;;;;108675;1257;33277;-38
2022/07/15 04:25:54;;;;;;;3.80;1.60;;;;;;;;;;108649;1256;33566;-39
2022/07/15 04:28:27;;;;;;;3.30;1.20;;;;;;;;;;108649;1256;33427;-38
2022/07/15 04:30:59;;;;;;;3.60;1.30;;;;;;;;;;108623;1257;34045;-38
2022/07/15 04:33:32;;;;;;;3.90;1.20;;;;;;;;;;108651;1257;33762;-38
2022/07/15 04:36:04;;;;;;;3.50;1.20;;;;;;;;;;108655;1256;33723;-37
2022/07/15 04:38:37;;;;;;;2.80;1.30;;;;;;;;;;108665;1256;33167;-39
2022/07/15 04:41:09;;;;;;;3.60;1.40;;;;;;;;;;108671;1256;33866;-39
2022/07/15 04:43:41;;;;;;;3.80;1.30;;;;;;;;;;108660;1256;33826;-39
2022/07/15 04:46:14;;;;;;;2.70;1.00;;;;;;;;;;108618;1256;33937;-38
2022/07/15 04:51:36;;;;;;;3.70;1.20;;;;;;;;;;108657;1257;34111;-38
2022/07/15 04:54:09;;;;;;;3.50;1.20;;;;;;;;;;108626;1257;33329;-38
2022/07/15 04:56:40;;;;;;;;;;;;;;;;;;108652;1256;34047;-39
2022/07/15 04:59:12;;;;;;;3.60;1.40;;;;;;;;;;108658;1257;33392;-38
2022/07/15 05:01:44;;;;;;;3.00;1.10;;;;;;;;;;108622;1256;34251;-38
2022/07/15 05:04:17;;;;;;;3.80;1.20;;;;;;;;;;108617;1256;33343;-38
2022/07/15 05:06:49;;;;;;;3.50;1.40;;;;;;;;;;108675;1256;33713;-38
2022/07/15 05:09:22;;;;;;;3.00;1.20;;;;;;;;;;108666;1256;33846;-37
2022/07/15 05:11:54;;;;;;;2.40;1.00;;;;;;;;;;108617;1263;34777;-38
2022/07/15 05:14:26;;;;;;;3.50;1.30;;;;;;;;;;108656;1256;33939;-38
2022/07/15 05:16:58;;;;;;;2.90;1.10;;;;;;;;;;108604;1256;33794;-38
2022/07/15 05:19:31;;;;;;;3.80;1.10;;;;;;;;;;108606;1260;33817;-39
2022/07/15 05:22:03;;;;;;;3.00;1.10;;;;;;;;;;108631;1263;33930;-38
2022/07/15 05:24:36;;;;;;;3.40;1.20;;;;;;;;;;108647;1263;33441;-38
2022/07/15 05:27:09;;;;;;;2.60;1.00;;;;;;;;;;108682;1256;33635;-38
2022/07/15 05:29:41;;;;;;;3.30;1.20;;;;;;;;;;108643;1257;34126;-38
2022/07/15 05:32:14;;;;;;;4.20;1.30;;;;;;;;;;108647;1263;34528;-38
2022/07/15 05:34:46;;;;;;;4.10;1.40;;;;;;;;;;108621;1257;33575;-38
2022/07/15 05:37:18;;;;;;;3.10;1.20;;;;;;;;;;108634;1260;34592;-38
2022/07/15 05:39:57;;;;;;;3.00;1.20;;;;;;;;;;108658;1257;33637;-38
2022/07/15 05:42:30;;;;;;;3.70;1.30;;;;;;;;;;108679;1257;34339;-38
2022/07/15 05:45:02;;;;;;;2.80;1.00;;;;;;;;;;108638;1255;34153;-38
2022/07/15 05:47:35;;;;;;;3.70;1.20;;;;;;;;;;108682;1256;33697;-39
2022/07/15 05:50:09;;;;;;;3.40;1.10;;;;;;;;;;108619;1263;33954;-38
2022/07/15 05:52:41;;;;;;;3.30;1.40;;;;;;;;;;108666;1263;34310;-38
2022/07/15 05:55:15;;;;;;;3.00;1.30;;;;;;;;;;108647;1263;33791;-38
2022/07/15 05:57:47;;;;;;;2.80;1.20;;;;;;;;;;108657;1256;33853;-38
2022/07/15 06:00:20;;;;;;;2.90;1.20;;;;;;;;;;108670;1256;34213;-38
2022/07/15 06:02:52;;;;;;;2.90;1.00;;;;;;;;;;108657;1257;33832;-38
2022/07/15 06:05:25;;;;;;;2.80;1.10;;;;;;;;;;108647;1257;33747;-38
2022/07/15 06:07:57;;;;;;;4.20;1.80;;;;;;;;;;108700;1257;34057;-38
2022/07/15 06:10:30;;;;;;;3.50;1.20;;;;;;;;;;108656;1257;33811;-38
2022/07/15 06:13:02;;;;;;;3.80;1.20;;;;;;;;;;108667;1263;33822;-38
2022/07/15 06:15:34;;;;;;;5.00;1.30;;;;;;;;;;108631;1257;33698;-38
2022/07/15 06:18:07;;;;;;;3.80;1.50;;;;;;;;;;108649;1257;33705;-38
2022/07/15 06:20:39;;;;;;;4.50;1.30;;;;;;;;;;108629;1263;33326;-39
2022/07/15 06:23:11;;;;;;;3.70;1.40;;;;;;;;;;108620;1257;33766;-38
2022/07/15 06:25:44;;;;;;;4.40;1.20;;;;;;;;;;108623;1256;33865;-38
2022/07/15 06:28:17;;;;;;;4.40;1.50;;;;;;;;;;108642;1257;33888;-37
2022/07/15 06:30:49;;;;;;;3.40;1.30;;;;;;;;;;108649;1257;34121;-38
2022/07/15 06:33:24;;;;;;;4.20;1.40;;;;;;;;;;108627;1256;33374;-38
2022/07/15 06:35:56;;;;;;;4.80;1.10;;;;;;;;;;108290;1256;33835;-38
2022/07/15 06:38:29;;;;;;;3.80;1.10;;;;;;;;;;108613;1257;33714;-38
2022/07/15 06:41:01;;;;;;;3.90;1.20;;;;;;;;;;108660;1257;33802;-38
2022/07/15 06:43:33;;;;;;;3.30;1.00;;;;;;;;;;108643;1263;34285;-39
2022/07/15 06:46:06;;;;;;;3.90;1.20;;;;;;;;;;108655;1257;33814;-37
2022/07/15 06:48:39;;;;;;;3.40;1.10;;;;;;;;;;108635;1256;33448;-39
2022/07/15 06:51:12;;;;;;;4.00;1.30;;;;;;;;;;108675;1263;34257;-38
2022/07/15 06:53:45;;;;;;;3.00;1.10;;;;;;;;;;108682;1257;33284;-38
2022/07/15 06:56:17;;;;;;;4.10;1.00;;;;;;;;;;108605;1256;33916;-38
2022/07/15 06:58:49;;;;;;;3.20;1.30;;;;;;;;;;108644;1256;34111;-38
2022/07/15 07:01:23;;;;;;;4.30;1.10;;;;;;;;;;108639;1263;35978;-38
2022/07/15 07:03:55;;;;;;;3.60;1.20;;;;;;;;;;108682;1263;34206;-38
2022/07/15 07:06:27;;;;;;;3.80;1.40;;;;;;;;;;108668;1256;35556;-38
2022/07/15 07:09:00;;;;;;;2.40;0.90;;;;;;;;;;108590;1263;33343;-37
2022/07/15 07:11:32;;;;;;;3.60;1.00;;;;;;;;;;108661;1261;33871;-38
2022/07/15 07:14:05;;;;;;;2.90;1.10;;;;;;;;;;108643;1261;33699;-38
2022/07/15 07:16:38;;;;;;;4.10;1.40;;;;;;;;;;108625;1257;35094;-38
2022/07/15 07:19:11;;;;;;;3.60;1.40;;;;;;;;;;108656;1257;34204;-38
2022/07/15 07:21:43;;;;;;;7.90;1.90;;;;;;;;;;108625;1263;33405;-38
2022/07/15 07:24:15;;;;;;;5.10;1.80;;;;;;;;;;108654;1257;33900;-38
2022/07/15 07:26:48;;;;;;;4.20;1.30;;;;;;;;;;108653;1256;33856;-38
2022/07/15 07:29:22;;;;;;;5.50;1.60;;;;;;;;;;108673;1255;33314;-39
2022/07/15 07:31:55;;;;;;;3.90;1.60;;;;;;;;;;108644;1257;33722;-38
2022/07/15 07:34:27;;;;;;;5.00;1.20;;;;;;;;;;108709;1256;33708;-38
2022/07/15 07:37:00;;;;;;;5.90;1.80;;;;;;;;;;108612;1256;33664;-38
2022/07/15 07:39:32;;;;;;;6.60;2.00;;;;;;;;;;108674;1263;34353;-38
2022/07/15 07:42:04;;;;;;;4.00;1.30;;;;;;;;;;108686;1257;34416;-38
2022/07/15 07:44:37;;;;;;;6.50;1.90;;;;;;;;;;108665;1257;33331;-38
2022/07/15 07:47:09;;;;;;;4.10;1.10;;;;;;;;;;108642;1256;33682;-38
2022/07/15 07:49:44;;;;;;;3.80;1.40;;;;;;;;;;108623;1263;34346;-38
2022/07/15 07:52:16;;;;;;;3.80;1.50;;;;;;;;;;108664;1257;33448;-38
2022/07/15 07:54:48;;;;;;;4.50;1.30;;;;;;;;;;108615;1263;33326;-39
2022/07/15 07:57:21;;;;;;;4.60;1.50;;;;;;;;;;108634;1257;34174;-38
2022/07/15 07:59:53;;;;;;;4.10;1.40;;;;;;;;;;108660;1263;33892;-39
2022/07/15 08:02:25;;;;;;;3.50;1.40;;;;;;;;;;108649;1256;33422;-38
2022/07/15 08:04:57;;;;;;;5.80;1.60;;;;;;;;;;108644;1263;34211;-37
2022/07/15 08:07:30;;;;;;;5.50;1.50;;;;;;;;;;108647;1257;33693;-38
2022/07/15 08:10:02;;;;;;;3.60;1.30;;;;;;;;;;108663;1263;34221;-38
2022/07/15 08:12:36;;;;;;;4.10;1.30;;;;;;;;;;108649;1263;33428;-38
2022/07/15 08:15:12;;;;;;;3.40;1.40;;;;;;;;;;108631;1261;33897;-38
2022/07/15 08:17:44;;;;;;;5.20;1.70;;;;;;;;;;108685;1256;33392;-38
2022/07/15 08:20:17;;;;;;;3.50;1.50;;;;;;;;;;108597;1257;33924;-38
2022/07/15 08:22:49;;;;;;;5.00;1.60;;;;;;;;;;108598;1256;33685;-37
2022/07/15 08:25:21;;;;;;;5.00;1.30;;;;;;;;;;108650;1256;33789;-32
2022/07/15 08:27:54;;;;;;;4.60;1.40;;;;;;;;;;108544;1256;33372;-36
2022/07/15 08:30:27;;;;;;;6.10;1.20;;;;;;;;;;108513;1263;34132;-37
2022/07/15 08:33:00;;;;;;;4.70;1.00;;;;;;;;;;108629;1263;33929;-37
2022/07/15 08:35:31;;;;;;;;;;;;;;;;;;108650;1255;33721;-37
2022/07/15 08:38:07;;;;;;;4.30;1.20;;;;;;;;;;108657;1256;33646;-35
2022/07/15 08:40:43;;;;;;;4.30;1.20;;;;;;;;;;108671;1263;33360;-39
2022/07/15 08:43:18;;;;;;;3.80;1.20;;;;;;;;;;108512;1263;34249;-36
2022/07/15 08:45:51;;;;;;;3.70;1.20;;;;;;;;;;108541;1260;33316;-38
2022/07/15 08:48:28;;;;;;;3.30;1.20;;;;;;;;;;108545;1263;34175;-37
2022/07/15 08:51:01;;;;;;;3.50;1.30;;;;;;;;;;108600;1263;33423;-37
2022/07/15 08:53:34;;;;;;;2.80;0.90;;;;;;;;;;108643;1256;34484;-40
2022/07/15 08:56:09;;;;;;;2.90;0.90;;;;;;;;;;108640;1256;33825;-39
2022/07/15 08:58:42;;;;;;;3.70;1.00;;;;;;;;;;108612;1263;33669;-37
2022/07/15 09:01:15;;;;;;;3.40;0.70;;;;;;;;;;108595;1263;34266;-35
2022/07/15 09:03:47;;;;;;;3.60;1.00;;;;;;;;;;108574;1262;33367;-37
2022/07/15 09:06:37;;;;;;;2.50;0.70;;;;;;;;;;108525;1256;33825;-39
2022/07/15 09:09:30;;;;;;;2.80;0.80;;;;;;;;;;108548;1263;33431;-37
2022/07/15 09:12:08;;;;;;;3.40;1.00;;;;;;;;;;108540;1257;34125;-37
2022/07/15 09:14:44;;;;;;;3.40;0.70;;;;;;;;;;108620;1257;34082;-36
2022/07/15 09:17:27;;;;;;;3.10;0.70;;;;;;;;;;108613;1263;33444;-36
2022/07/15 09:20:15;;;;;;;2.30;0.70;;;;;;;;;;108559;1264;34620;-42
2022/07/15 09:22:56;;;;;;;3.30;0.80;;;;;;;;;;108601;1263;34392;-41
2022/07/15 09:25:29;;;;;;;3.80;0.70;;;;;;;;;;108615;1260;33869;-35
2022/07/15 09:28:03;;;;;;;2.10;0.60;;;;;;;;;;108612;1256;34299;-34
2022/07/15 09:33:36;;;;;;;1.90;0.60;;;;;;;;;;108575;1263;33423;-35
2022/07/15 09:36:16;;;;;;;1.80;0.60;;;;;;;;;;108546;1264;33774;-35
2022/07/15 09:38:52;;;;;;;1.80;0.70;;;;;;;;;;108594;1257;33996;-35
2022/07/15 09:41:35;;;;;;;2.70;0.60;;;;;;;;;;108575;1262;33982;-41
2022/07/15 09:44:12;;;;;;;2.10;0.50;;;;;;;;;;108605;1257;33816;-40
2022/07/15 09:46:48;;;;;;;1.80;0.50;;;;;;;;;;108555;1257;34054;-36
2022/07/15 09:49:34;;;;;;;2.20;0.60;;;;;;;;;;108625;1260;34065;-37
2022/07/15 09:52:10;;;;;;;2.70;0.90;;;;;;;;;;108560;1257;33435;-41
2022/07/15 09:54:44;;;;;;;2.80;0.60;;;;;;;;;;108591;1256;33749;-36
2022/07/15 09:57:20;;;;;;;2.90;0.80;;;;;;;;;;108577;1256;33868;-37
2022/07/15 09:59:53;;;;;;;2.60;0.70;;;;;;;;;;108553;1257;34144;-38
2022/07/15 10:02:26;;;;;;;1.80;0.70;;;;;;;;;;108584;1264;34393;-38
2022/07/15 10:05:00;;;;;;;2.90;0.70;;;;;;;;;;108559;1257;34327;-38
2022/07/15 10:07:34;;;;;;;1.20;0.50;;;;;;;;;;108623;1263;33874;-38
2022/07/15 10:10:10;;;;;;;1.60;0.60;;;;;;;;;;108569;1256;33884;-38
2022/07/15 10:12:58;;;;;;;2.00;0.60;;;;;;;;;;108605;1257;33353;-42
2022/07/15 10:15:43;;;;;;;2.00;0.70;;;;;;;;;;108655;1261;33427;-38
2022/07/15 10:18:44;;;;;;;1.40;0.40;;;;;;;;;;108641;1260;33932;-41
2022/07/15 10:21:28;;;;;;;2.80;0.50;;;;;;;;;;108587;1261;34647;-41
2022/07/15 10:24:44;;;;;;;2.00;0.50;;;;;;;;;;108606;1263;34016;-39
2022/07/15 10:27:39;;;;;;;1.70;0.40;;;;;;;;;;108576;1263;34344;-39
2022/07/15 10:30:12;;;;;;;1.50;0.40;;;;;;;;;;108600;1263;33608;-39
2022/07/15 10:33:15;;;;;;;1.90;0.50;;;;;;;;;;108648;1258;33406;-37
2022/07/15 10:35:50;;;;;;;2.00;0.40;;;;;;;;;;108630;1261;33339;-38
2022/07/15 10:38:32;;;;;;;1.10;0.60;;;;;;;;;;108576;1265;34161;-35
2022/07/15 10:41:08;;;;;;;1.00;0.20;;;;;;;;;;108608;1257;33716;-38
2022/07/15 10:43:57;;;;;;;2.40;0.50;;;;;;;;;;108635;1257;33736;-40
2022/07/15 10:46:32;;;;;;;0.90;0.30;;;;;;;;;;108532;1263;33939;-36
2022/07/15 10:49:32;;;;;;;1.60;0.40;;;;;;;;;;108625;1257;33734;-35
2022/07/15 10:52:16;;;;;;;1.40;0.40;;;;;;;;;;108638;1258;33833;-41
2022/07/15 10:54:52;;;;;;;1.70;0.50;;;;;;;;;;108611;1261;33884;-37
2022/07/15 10:57:55;;;;;;;2.60;0.50;;;;;;;;;;108654;1263;33860;-37
2022/07/15 11:00:33;;;;;;;3.20;0.50;;;;;;;;;;108512;1263;33859;-37
2022/07/15 11:03:08;;;;;;;1.90;0.50;;;;;;;;;;108615;1258;33391;-35
2022/07/15 11:06:03;;;;;;;3.50;0.60;;;;;;;;;;108641;1263;34345;-34
2022/07/15 11:09:00;;;;;;;3.00;0.60;;;;;;;;;;108576;1264;34185;-40
2022/07/15 11:11:52;;;;;;;2.30;0.70;;;;;;;;;;108585;1261;33974;-36
2022/07/15 11:14:55;;;;;;;1.60;0.40;;;;;;;;;;108529;1263;34068;-37
2022/07/15 11:17:41;;;;;;;1.40;0.40;;;;;;;;;;108607;1261;33975;-37
2022/07/15 11:20:17;;;;;;;2.90;0.50;;;;;;;;;;108579;1263;33851;-36
2022/07/15 11:22:53;;;;;;;1.90;0.50;;;;;;;;;;108631;1263;33319;-36
2022/07/15 11:25:28;;;;;;;2.90;0.50;;;;;;;;;;108641;1261;33362;-41
2022/07/15 11:28:07;;;;;;;2.10;0.50;;;;;;;;;;108655;1261;33794;-37
2022/07/15 11:30:47;;;;;;;3.40;0.60;;;;;;;;;;108597;1256;33249;-37
2022/07/15 11:33:21;;;;;;;1.90;0.50;;;;;;;;;;108623;1264;34074;-37
2022/07/15 11:35:55;;;;;;;2.20;0.70;;;;;;;;;;108707;1257;33179;-37
2022/07/15 11:38:31;;;;;;;3.00;0.70;;;;;;;;;;108627;1263;33470;-37
2022/07/15 11:46:55;;;;;;;1.20;0.30;;;;;;;;;;108612;1263;34093;-37
2022/07/15 11:49:33;;;;;;;2.00;0.40;;;;;;;;;;108614;1260;33447;-37
2022/07/15 11:52:08;;;;;;;1.60;0.50;;;;;;;;;;108612;1263;33888;-37
2022/07/15 11:54:43;;;;;;;2.70;0.60;;;;;;;;;;108633;1263;33716;-37
2022/07/15 11:57:18;;;;;;;2.90;0.60;;;;;;;;;;108632;1256;33615;-37
2022/07/15 11:59:59;;;;;;;1.70;0.50;;;;;;;;;;108637;1257;33432;-37
2022/07/15 12:02:32;;;;;;;1.90;0.40;;;;;;;;;;108526;1265;33854;-37
2022/07/15 12:05:10;;;;;;;2.60;0.50;;;;;;;;;;108525;1267;33979;-37
2022/07/15 12:07:48;;;;;;;4.50;0.40;;;;;;;;;;108654;1263;33064;-37
2022/07/15 12:10:22;;;;;;;1.00;0.40;;;;;;;;;;108576;1258;33127;-37
2022/07/15 12:13:01;;;;;;;1.20;0.30;;;;;;;;;;108689;1263;33797;-37
2022/07/15 12:15:35;;;;;;;1.30;0.30;;;;;;;;;;108639;1257;33368;-37
2022/07/15 12:18:07;;;;;;;1.50;0.40;;;;;;;;;;108622;1257;33371;-37
2022/07/15 12:20:41;;;;;;;1.70;0.50;;;;;;;;;;108636;1263;33915;-37
2022/07/15 12:23:14;;;;;;;1.20;0.40;;;;;;;;;;108619;1257;33579;-37
2022/07/15 12:25:47;;;;;;;1.70;0.80;;;;;;;;;;108567;1257;33532;-37
2022/07/15 12:31:26;;;;;;;1.10;0.40;;;;;;;;;;105966;1292;567210;-35
2022/07/15 12:33:59;;;;;;;1.50;0.40;;;;;;;;;;108442;1269;33023;-35
2022/07/15 12:36:31;;;;;;;;;;;;;;;;;;108283;1263;33118;-38
2022/07/15 12:39:15;;;;;;;1.20;0.40;;;;;;;;;;108359;1261;33525;-37
2022/07/15 12:42:00;;;;;;;2.80;0.50;;;;;;;;;;108355;1267;33253;-38
2022/07/15 12:44:34;;;;;;;1.50;0.40;;;;;;;;;;108607;1257;278318;-38
2022/07/15 12:47:09;;;;;;;1.90;0.40;;;;;;;;;;109057;1260;33082;-38
2022/07/15 12:49:59;;;;;;;1.40;0.40;;;;;;;;;;109043;1254;33596;-37
2022/07/15 12:52:38;;;;;;;1.90;0.40;;;;;;;;;;108967;1259;33133;-38
2022/07/15 12:55:22;;;;;;;1.30;0.40;;;;;;;;;;109071;1253;33780;-37
2022/07/15 12:58:05;;;;;;;3.80;0.90;;;;;;;;;;109099;1260;32702;-38
2022/07/15 13:00:38;;;;;;;2.30;0.40;;;;;;;;;;109085;1260;32928;-37
2022/07/15 13:03:13;;;;;;;2.10;0.50;;;;;;;;;;109074;1254;33229;-34
2022/07/15 13:05:47;;;;;;;0.50;0.20;;;;;;;;;;109072;1254;33560;-34
2022/07/15 13:08:21;;;;;;;0.40;0.30;;;;;;;;;;108927;1260;33732;-36
2022/07/15 13:10:55;;;;;;;0.90;0.20;;;;;;;;;;109048;1254;33109;-38
2022/07/15 13:13:29;;;;;;;1.60;0.40;;;;;;;;;;109029;1260;33157;-37
2022/07/15 13:16:07;;;;;;;1.00;0.30;;;;;;;;;;109074;1254;33205;-37
2022/07/15 13:18:39;;;;;;;1.90;0.40;;;;;;;;;;109072;1254;33650;-37
2022/07/15 13:21:12;;;;;;;2.00;0.50;;;;;;;;;;109058;1260;33330;-37
2022/07/15 13:23:44;;;;;;;0.30;0.20;;;;;;;;;;109034;1261;33228;-37
2022/07/15 13:26:17;;;;;;;2.50;0.40;;;;;;;;;;109082;1255;33245;-38
2022/07/15 13:28:49;;;;;;;0.90;0.30;;;;;;;;;;109148;1251;34346;-38
2022/07/15 13:31:22;;;;;;;1.30;0.30;;;;;;;;;;109038;1259;33229;-39
2022/07/15 13:33:54;;;;;;;1.80;0.30;;;;;;;;;;109004;1254;33840;-40
2022/07/15 13:36:26;;;;;;;2.70;0.40;;;;;;;;;;109077;1254;33312;-38
2022/07/15 13:38:59;;;;;;;2.70;0.40;;;;;;;;;;109057;1254;33799;-40
2022/07/15 13:41:31;;;;;;;1.30;0.60;;;;;;;;;;109158;1260;33266;-38
2022/07/15 13:44:03;;;;;;;1.70;0.40;;;;;;;;;;109022;1260;33510;-40
2022/07/15 13:46:36;;;;;;;1.30;0.40;;;;;;;;;;109030;1252;33702;-40
2022/07/15 13:49:08;;;;;;;1.40;0.40;;;;;;;;;;109029;1260;33781;-40
2022/07/15 13:51:41;;;;;;;2.60;0.50;;;;;;;;;;109191;1257;33448;-37
2022/07/15 13:54:14;;;;;;;1.30;0.40;;;;;;;;;;108828;1257;33319;-37
2022/07/15 13:56:46;;;;;;;1.80;0.40;;;;;;;;;;109022;1260;33631;-38
2022/07/15 13:59:22;;;;;;;1.90;0.30;;;;;;;;;;109035;1253;33478;-37
2022/07/15 14:01:54;;;;;;;1.30;0.40;;;;;;;;;;109043;1260;33180;-40
2022/07/15 14:04:26;;;;;;;1.80;0.50;;;;;;;;;;109038;1260;33644;-40
2022/07/15 14:06:59;;;;;;;2.40;0.50;;;;;;;;;;109568;1251;33795;-40
2022/07/15 14:09:31;;;;;;;1.80;0.30;;;;;;;;;;109597;1251;33726;-39
2022/07/15 14:12:04;;;;;;;2.10;0.40;;;;;;;;;;109819;1251;33382;-36
2022/07/15 14:14:37;;;;;;;1.00;0.40;;;;;;;;;;109619;1254;33685;-36
2022/07/15 14:17:09;;;;;;;1.90;0.50;;;;;;;;;;109646;1254;33340;-36
2022/07/15 14:19:42;;;;;;;2.30;0.40;;;;;;;;;;109619;1253;34240;-37
2022/07/15 14:22:14;;;;;;;0.90;0.30;;;;;;;;;;109638;1256;33132;-38
2022/07/15 14:24:46;;;;;;;2.60;0.50;;;;;;;;;;109640;1251;33323;-38
2022/07/15 14:27:19;;;;;;;1.40;0.40;;;;;;;;;;109632;1253;33622;-36
2022/07/15 14:29:51;;;;;;;1.40;0.50;;;;;;;;;;109628;1254;33300;-36
2022/07/15 14:32:24;;;;;;;1.40;0.50;;;;;;;;;;109624;1257;33630;-35
2022/07/15 14:34:56;;;;;;;0.90;0.40;;;;;;;;;;109656;1254;33323;-37
2022/07/15 14:37:28;;;;;;;1.30;0.70;;;;;;;;;;109653;1253;34086;-38
2022/07/15 14:40:01;;;;;;;1.70;0.40;;;;;;;;;;109638;1250;33066;-38
2022/07/15 14:42:34;;;;;;;1.80;0.40;;;;;;;;;;109660;1256;33242;-38
2022/07/15 14:45:08;;;;;;;1.40;0.50;;;;;;;;;;109623;1252;33621;-38
2022/07/15 14:47:41;;;;;;;1.30;0.50;;;;;;;;;;109878;1254;33711;-38
2022/07/15 14:50:13;;;;;;;2.00;0.50;;;;;;;;;;109697;1251;33155;-38
2022/07/15 14:52:46;;;;;;;3.50;0.70;;;;;;;;;;109543;1257;33856;-38
2022/07/15 14:55:18;;;;;;;2.70;0.60;;;;;;;;;;109631;1256;33451;-39
2022/07/15 14:57:51;;;;;;;5.90;0.80;;;;;;;;;;109612;1253;33421;-37
2022/07/15 15:00:27;;;;;;;1.60;0.50;;;;;;;;;;109630;1256;33129;-37
2022/07/15 15:03:00;;;;;;;2.70;0.90;;;;;;;;;;109629;1256;33357;-37
2022/07/15 15:05:32;;;;;;;1.50;0.60;;;;;;;;;;109644;1253;33563;-35
2022/07/15 15:08:05;;;;;;;2.60;0.60;;;;;;;;;;109629;1248;33149;-40
2022/07/15 15:10:38;;;;;;;4.00;0.90;;;;;;;;;;109657;1253;32979;-38
2022/07/15 15:13:10;;;;;;;3.50;0.70;;;;;;;;;;109645;1253;33150;-41
2022/07/15 15:15:42;;;;;;;2.20;0.60;;;;;;;;;;109626;1253;33557;-43
2022/07/15 15:18:14;;;;;;;4.30;0.90;;;;;;;;;;109672;1250;33943;-44
2022/07/15 15:20:47;;;;;;;5.00;0.60;;;;;;;;;;109700;1248;33733;-41
2022/07/15 15:23:22;;;;;;;2.90;0.50;;;;;;;;;;109409;1250;33793;-38
2022/07/15 15:28:47;;;;;;;3.30;0.70;;;;;;;;;;109424;1250;33134;-38
2022/07/15 15:31:21;;;;;;;3.20;0.90;;;;;;;;;;109393;1253;33784;-38